createdAt,value
2022-10-12T00:01:04.750Z,69.80
2022-10-12T00:03:31.496Z,70.08
2022-10-12T00:05:57.592Z,69.91
2022-10-12T00:08:23.705Z,69.71
2022-10-12T00:10:50.103Z,70.45
2022-10-12T00:13:16.214Z,70.02
2022-10-12T00:15:42.290Z,70.52
2022-10-12T00:18:08.408Z,70.46
2022-10-12T00:20:34.504Z,69.96
2022-10-12T00:23:00.594Z,70.62
2022-10-12T00:25:26.723Z,70.49
2022-10-12T00:27:52.812Z,70.23
2022-10-12T00:30:18.898Z,70.26
2022-10-12T00:32:45.010Z,70.49
2022-10-12T00:35:11.103Z,70.71
2022-10-12T00:37:37.420Z,70.96
2022-10-12T00:40:03.885Z,71.18
2022-10-12T00:42:29.968Z,70.95
2022-10-12T00:44:56.054Z,71.34
2022-10-12T00:47:22.159Z,71.10
2022-10-12T00:49:48.252Z,70.75
2022-10-12T00:52:14.347Z,71.21
2022-10-12T00:54:40.449Z,71.17
2022-10-12T00:57:06.556Z,71.56
2022-10-12T00:59:32.660Z,71.47
2022-10-12T01:01:58.779Z,71.36
2022-10-12T01:04:24.855Z,71.32
2022-10-12T01:06:50.944Z,71.54
2022-10-12T01:09:17.381Z,71.65
2022-10-12T01:11:43.480Z,71.26
2022-10-12T01:14:09.569Z,71.75
2022-10-12T01:16:36.163Z,71.92
2022-10-12T01:19:02.241Z,72.24
2022-10-12T01:21:28.335Z,71.96
2022-10-12T01:23:54.428Z,72.35
2022-10-12T01:26:20.535Z,72.50
2022-10-12T01:28:46.709Z,72.43
2022-10-12T01:31:12.905Z,72.32
2022-10-12T01:33:38.993Z,72.37
2022-10-12T01:36:05.083Z,72.38
2022-10-12T01:38:31.201Z,72.66
2022-10-12T01:40:57.278Z,72.36
2022-10-12T01:43:23.383Z,72.50
2022-10-12T01:45:49.476Z,72.30
2022-10-12T01:48:15.563Z,72.82
2022-10-12T01:50:41.644Z,72.52
2022-10-12T01:53:07.772Z,72.62
2022-10-12T01:55:33.861Z,72.91
2022-10-12T01:57:59.997Z,72.53
2022-10-12T02:00:26.109Z,72.32
2022-10-12T02:02:52.269Z,72.91
2022-10-12T02:05:18.378Z,72.58
2022-10-12T02:07:44.472Z,72.65
2022-10-12T02:10:10.567Z,72.87
2022-10-12T02:12:36.681Z,73.00
2022-10-12T02:15:02.793Z,72.39
2022-10-12T02:17:28.886Z,73.12
2022-10-12T02:19:54.982Z,72.89
2022-10-12T02:22:21.099Z,72.96
2022-10-12T02:24:47.185Z,72.91
2022-10-12T02:27:13.274Z,73.22
2022-10-12T02:29:39.381Z,72.96
2022-10-12T02:32:05.455Z,72.85
2022-10-12T02:34:31.557Z,73.33
2022-10-12T02:36:57.696Z,73.22
2022-10-12T02:39:23.791Z,73.21
2022-10-12T02:41:49.877Z,72.94
2022-10-12T02:44:16.001Z,73.24
2022-10-12T02:46:42.093Z,73.03
2022-10-12T02:49:08.175Z,73.36
2022-10-12T02:51:34.289Z,73.03
2022-10-12T02:54:00.372Z,72.82
2022-10-12T02:56:26.467Z,73.16
2022-10-12T02:58:52.564Z,72.96
2022-10-12T03:01:18.706Z,73.22
2022-10-12T03:03:44.868Z,73.16
2022-10-12T03:06:10.968Z,72.79
2022-10-12T03:08:37.050Z,72.89
2022-10-12T03:11:03.177Z,73.15
2022-10-12T03:13:29.661Z,73.08
2022-10-12T03:15:55.768Z,73.43
2022-10-12T03:18:21.860Z,73.11
2022-10-12T03:20:48.021Z,73.58
2022-10-12T03:23:14.111Z,73.30
2022-10-12T03:25:40.192Z,73.25
2022-10-12T03:28:06.322Z,72.90
2022-10-12T03:30:32.411Z,73.14
2022-10-12T03:32:58.499Z,73.11
2022-10-12T03:35:24.596Z,73.36
2022-10-12T03:37:50.689Z,73.11
2022-10-12T03:40:16.783Z,73.21
2022-10-12T03:42:42.908Z,73.12
2022-10-12T03:45:08.994Z,73.28
2022-10-12T03:47:35.226Z,73.05
2022-10-12T03:50:01.519Z,73.22
2022-10-12T03:52:27.620Z,73.39
2022-10-12T03:54:53.721Z,73.22
2022-10-12T03:57:19.833Z,73.43
2022-10-12T03:59:45.927Z,73.50
2022-10-12T04:02:16.563Z,73.52
2022-10-12T04:04:43.108Z,73.23
2022-10-12T04:07:09.198Z,73.25
2022-10-12T04:09:35.295Z,73.41
2022-10-12T04:12:01.413Z,73.40
2022-10-12T04:14:27.509Z,73.35
2022-10-12T04:16:53.609Z,73.50
2022-10-12T04:19:19.715Z,73.36
2022-10-12T04:21:45.806Z,73.75
2022-10-12T04:24:11.900Z,73.65
2022-10-12T04:26:38.301Z,73.33
2022-10-12T04:29:04.386Z,73.58
2022-10-12T04:31:30.479Z,73.81
2022-10-12T04:33:56.840Z,73.63
2022-10-12T04:36:23.264Z,73.47
2022-10-12T04:38:49.436Z,73.50
2022-10-12T04:41:15.551Z,73.51
2022-10-12T04:43:41.664Z,73.44
2022-10-12T04:46:07.761Z,73.41
2022-10-12T04:48:33.874Z,73.76
2022-10-12T04:50:59.950Z,73.57
2022-10-12T04:53:26.045Z,73.48
2022-10-12T04:55:52.136Z,73.53
2022-10-12T04:58:18.242Z,73.50
2022-10-12T05:00:44.334Z,73.59
2022-10-12T05:03:10.442Z,73.89
2022-10-12T05:05:36.539Z,73.41
2022-10-12T05:08:02.634Z,74.00
2022-10-12T05:10:28.736Z,73.62
2022-10-12T05:12:54.817Z,73.72
2022-10-12T05:15:20.918Z,73.75
2022-10-12T05:17:47.039Z,73.80
2022-10-12T05:20:13.132Z,73.93
2022-10-12T05:22:39.228Z,74.09
2022-10-12T05:25:05.544Z,74.03
2022-10-12T05:27:31.648Z,73.72
2022-10-12T05:29:57.748Z,74.22
2022-10-12T05:32:23.879Z,74.09
2022-10-12T05:34:49.977Z,73.99
2022-10-12T05:37:16.070Z,73.97
2022-10-12T05:39:42.180Z,74.51
2022-10-12T05:42:08.273Z,74.29
2022-10-12T05:44:34.373Z,74.22
2022-10-12T05:47:00.492Z,74.01
2022-10-12T05:49:26.609Z,74.54
2022-10-12T05:51:52.698Z,74.56
2022-10-12T05:54:18.802Z,74.31
2022-10-12T05:56:44.883Z,74.41
2022-10-12T05:59:10.970Z,73.97
2022-10-12T06:01:37.102Z,74.09
2022-10-12T06:04:03.227Z,74.07
2022-10-12T06:06:29.344Z,74.39
2022-10-12T06:08:55.458Z,74.03
2022-10-12T06:11:21.539Z,74.16
2022-10-12T06:13:47.621Z,74.20
2022-10-12T06:16:13.751Z,73.83
2022-10-12T06:18:39.849Z,74.41
2022-10-12T06:21:31.902Z,74.26
2022-10-12T06:23:52.025Z,74.20
2022-10-12T06:26:18.121Z,74.51
2022-10-12T06:28:44.273Z,74.19
2022-10-12T06:31:10.717Z,74.13
2022-10-12T06:33:36.796Z,74.49
2022-10-12T06:36:02.875Z,74.32
2022-10-12T06:38:28.984Z,74.36
2022-10-12T06:40:55.089Z,74.51
2022-10-12T06:43:21.182Z,74.77
2022-10-12T06:45:47.272Z,74.43
2022-10-12T06:48:18.243Z,74.76
2022-10-12T06:50:44.720Z,74.93
2022-10-12T06:53:10.823Z,74.70
2022-10-12T06:55:36.900Z,75.00
2022-10-12T06:58:02.985Z,74.96
2022-10-12T07:00:29.080Z,74.86
2022-10-12T07:02:55.777Z,74.87
2022-10-12T07:05:21.913Z,74.56
2022-10-12T07:07:48.027Z,74.90
2022-10-12T07:10:14.124Z,74.96
2022-10-12T07:12:40.479Z,74.81
2022-10-12T07:15:06.786Z,74.85
2022-10-12T07:17:32.893Z,74.68
2022-10-12T07:19:58.981Z,74.50
2022-10-12T07:22:25.117Z,74.66
2022-10-12T07:24:51.203Z,74.59
2022-10-12T07:27:17.325Z,74.71
2022-10-12T07:29:43.423Z,74.54
2022-10-12T07:32:09.532Z,74.78
2022-10-12T07:34:35.633Z,74.71
2022-10-12T07:37:01.800Z,74.81
2022-10-12T07:39:27.904Z,74.77
2022-10-12T07:41:54.103Z,75.05
2022-10-12T07:44:20.984Z,75.31
2022-10-12T07:46:47.229Z,75.17
2022-10-12T07:49:13.333Z,74.46
2022-10-12T07:51:39.427Z,74.82
2022-10-12T07:54:05.537Z,74.89
2022-10-12T07:56:31.644Z,74.94
2022-10-12T07:58:57.807Z,74.77
2022-10-12T08:01:23.979Z,75.11
2022-10-12T08:03:50.125Z,75.24
2022-10-12T08:06:16.276Z,74.92
2022-10-12T08:08:42.378Z,75.09
2022-10-12T08:11:08.502Z,75.07
2022-10-12T08:13:34.633Z,74.98
2022-10-12T08:16:00.737Z,74.90
2022-10-12T08:18:26.883Z,74.83
2022-10-12T08:20:53.013Z,74.99
2022-10-12T08:23:19.109Z,75.09
2022-10-12T08:25:45.185Z,74.76
2022-10-12T08:28:11.336Z,75.10
2022-10-12T08:30:37.673Z,75.32
2022-10-12T08:33:06.918Z,75.43
2022-10-12T08:35:36.325Z,75.48
2022-10-12T08:38:02.429Z,74.90
2022-10-12T08:40:28.521Z,75.00
2022-10-12T08:42:54.644Z,74.89
2022-10-12T08:45:20.725Z,75.14
2022-10-12T08:47:46.834Z,74.95
2022-10-12T08:50:12.947Z,74.88
2022-10-12T08:52:39.299Z,74.94
2022-10-12T08:55:05.603Z,74.65
2022-10-12T08:57:31.696Z,74.66
2022-10-12T08:59:57.835Z,74.65
2022-10-12T09:02:23.923Z,75.00
2022-10-12T09:04:50.041Z,75.06
2022-10-12T09:07:16.150Z,74.79
2022-10-12T09:09:43.910Z,74.75
2022-10-12T09:12:10.261Z,74.71
2022-10-12T09:14:36.509Z,74.62
2022-10-12T09:17:02.636Z,74.51
2022-10-12T09:19:28.781Z,74.45
2022-10-12T09:21:54.861Z,74.11
2022-10-12T09:24:20.962Z,74.28
2022-10-12T09:26:47.079Z,73.98
2022-10-12T09:29:13.177Z,73.98
2022-10-12T09:31:39.277Z,73.83
2022-10-12T09:34:05.385Z,73.93
2022-10-12T09:36:31.466Z,73.69
2022-10-12T09:38:57.569Z,73.43
2022-10-12T09:41:24.048Z,73.13
2022-10-12T09:43:50.133Z,72.71
2022-10-12T09:46:16.214Z,72.39
2022-10-12T09:48:45.790Z,72.21
2022-10-12T09:51:13.912Z,71.65
2022-10-12T09:53:40.069Z,71.36
2022-10-12T09:56:06.238Z,71.06
2022-10-12T09:58:32.337Z,70.47
2022-10-12T10:00:58.420Z,70.12
2022-10-12T10:03:29.132Z,69.58
2022-10-12T10:05:57.712Z,69.25
2022-10-12T10:08:23.902Z,69.10
2022-10-12T10:10:50.007Z,68.62
2022-10-12T10:13:16.114Z,67.94
2022-10-12T10:15:42.211Z,67.61
2022-10-12T10:18:08.320Z,67.72
2022-10-12T10:20:34.474Z,67.31
2022-10-12T10:23:00.555Z,67.31
2022-10-12T10:25:26.689Z,67.08
2022-10-12T10:27:52.867Z,66.65
2022-10-12T10:30:29.755Z,66.47
2022-10-12T10:32:58.125Z,66.37
2022-10-12T10:35:24.215Z,66.36
2022-10-12T10:37:50.329Z,65.90
2022-10-12T10:40:16.692Z,65.76
2022-10-12T10:42:42.944Z,65.63
2022-10-12T10:45:09.050Z,65.13
2022-10-12T10:47:35.449Z,65.08
2022-10-12T10:50:01.546Z,64.83
2022-10-12T10:52:27.660Z,64.59
2022-10-12T10:54:53.796Z,64.53
2022-10-12T10:57:19.881Z,63.96
2022-10-12T10:59:45.964Z,64.05
2022-10-12T11:02:12.064Z,63.88
2022-10-12T11:04:38.144Z,63.67
2022-10-12T11:07:04.242Z,63.64
2022-10-12T11:09:30.357Z,63.54
2022-10-12T11:11:56.455Z,63.34
2022-10-12T11:14:22.549Z,62.83
2022-10-12T11:16:48.659Z,62.48
2022-10-12T11:19:14.765Z,62.37
2022-10-12T11:21:40.907Z,62.25
2022-10-12T11:24:07.681Z,62.41
2022-10-12T11:26:33.783Z,62.40
2022-10-12T11:28:59.876Z,61.99
2022-10-12T11:31:25.973Z,61.88
2022-10-12T11:33:52.077Z,61.24
2022-10-12T11:36:18.192Z,60.75
2022-10-12T11:38:44.313Z,60.38
2022-10-12T11:43:56.492Z,60.00
2022-10-12T11:46:22.579Z,60.02
2022-10-12T11:48:48.661Z,59.92
2022-10-12T11:51:14.799Z,60.01
2022-10-12T11:53:40.886Z,59.98
2022-10-12T11:56:07.004Z,59.56
2022-10-12T11:58:55.909Z,59.40
2022-10-12T12:01:19.184Z,59.07
2022-10-12T12:03:45.352Z,59.03
2022-10-12T12:06:11.464Z,58.91
2022-10-12T12:08:37.587Z,58.87
2022-10-12T12:13:53.859Z,58.24
2022-10-12T12:16:20.010Z,58.42
2022-10-12T12:18:46.110Z,58.20
2022-10-12T12:21:12.229Z,58.31
2022-10-12T12:23:38.343Z,58.22
2022-10-12T12:26:06.145Z,58.35
2022-10-12T12:28:32.301Z,58.46
2022-10-12T12:30:58.429Z,58.67
2022-10-12T12:33:24.525Z,58.76
2022-10-12T12:35:50.637Z,58.71
2022-10-12T12:38:16.730Z,58.65
2022-10-12T12:40:42.834Z,58.52
2022-10-12T12:43:08.939Z,58.39
2022-10-12T12:45:35.038Z,58.45
2022-10-12T12:48:01.152Z,58.15
2022-10-12T12:50:27.343Z,58.18
2022-10-12T12:52:53.438Z,58.23
2022-10-12T12:55:19.516Z,57.87
2022-10-12T12:57:45.616Z,57.91
2022-10-12T13:00:11.725Z,57.91
2022-10-12T13:02:37.817Z,57.76
2022-10-12T13:05:03.921Z,57.54
2022-10-12T13:07:30.193Z,57.30
2022-10-12T13:09:56.460Z,57.21
2022-10-12T13:12:22.570Z,57.26
2022-10-12T13:14:48.662Z,57.23
2022-10-12T13:20:01.021Z,56.97
2022-10-12T13:22:27.149Z,56.80
2022-10-12T13:24:53.402Z,57.00
2022-10-12T13:27:19.524Z,56.88
2022-10-12T13:29:45.677Z,56.74
2022-10-12T13:32:12.074Z,56.88
2022-10-12T13:34:38.194Z,56.69
2022-10-12T13:37:04.290Z,56.43
2022-10-12T13:39:31.587Z,56.29
2022-10-12T13:42:00.223Z,56.60
2022-10-12T13:44:26.351Z,56.73
2022-10-12T13:46:52.450Z,56.52
2022-10-12T13:49:18.573Z,56.73
2022-10-12T13:51:44.669Z,56.93
2022-10-12T13:54:10.756Z,57.00
2022-10-12T13:56:36.868Z,57.05
2022-10-12T13:59:05.428Z,57.14
2022-10-12T14:01:34.874Z,56.95
2022-10-12T14:04:00.993Z,57.20
2022-10-12T14:06:27.102Z,57.15
2022-10-12T14:08:53.201Z,57.50
2022-10-12T14:11:19.325Z,57.03
2022-10-12T14:13:45.422Z,57.07
2022-10-12T14:16:11.495Z,57.14
2022-10-12T14:18:37.609Z,56.93
2022-10-12T14:21:03.738Z,57.09
2022-10-12T14:23:29.844Z,57.19
2022-10-12T14:25:56.477Z,57.14
2022-10-12T14:28:22.582Z,57.11
2022-10-12T14:30:48.680Z,57.12
2022-10-12T14:33:14.798Z,57.17
2022-10-12T14:35:40.925Z,56.97
2022-10-12T14:38:07.012Z,57.12
2022-10-12T14:40:33.172Z,57.38
2022-10-12T14:42:59.272Z,57.29
2022-10-12T14:45:25.362Z,57.28
2022-10-12T14:47:51.486Z,57.03
2022-10-12T14:50:17.568Z,56.86
2022-10-12T14:52:43.673Z,57.13
2022-10-12T14:55:09.786Z,57.01
2022-10-12T14:57:35.873Z,56.91
2022-10-12T15:00:01.966Z,56.73
2022-10-12T15:02:28.059Z,56.89
2022-10-12T15:04:54.144Z,56.91
2022-10-12T15:07:20.243Z,56.70
2022-10-12T15:09:46.367Z,56.81
2022-10-12T15:12:12.482Z,56.70
2022-10-12T15:14:38.622Z,56.33
2022-10-12T15:17:04.738Z,56.10
2022-10-12T15:19:30.834Z,56.10
2022-10-12T15:21:56.945Z,56.11
2022-10-12T15:24:23.106Z,55.99
2022-10-12T15:26:49.382Z,55.73
2022-10-12T15:29:15.500Z,55.43
2022-10-12T15:31:41.614Z,54.87
2022-10-12T15:34:07.708Z,54.49
2022-10-12T15:36:33.804Z,53.89
2022-10-12T15:38:59.908Z,53.34
2022-10-12T15:41:26.006Z,52.13
2022-10-12T15:43:52.112Z,51.80
2022-10-12T15:46:18.214Z,51.36
2022-10-12T15:48:44.306Z,50.78
2022-10-12T15:51:10.516Z,50.91
2022-10-12T15:53:36.652Z,51.58
2022-10-12T15:56:02.744Z,52.55
2022-10-12T15:58:28.930Z,53.09
2022-10-12T16:00:55.112Z,53.51
2022-10-12T16:03:25.633Z,54.03
2022-10-12T16:05:52.276Z,54.25
2022-10-12T16:08:18.401Z,54.84
2022-10-12T16:10:44.498Z,55.36
2022-10-12T16:13:10.591Z,55.48
2022-10-12T16:15:36.921Z,56.01
2022-10-12T16:18:03.062Z,56.37
2022-10-12T16:20:29.147Z,56.36
2022-10-12T16:22:55.270Z,56.81
2022-10-12T16:25:21.381Z,56.98
2022-10-12T16:27:47.474Z,57.09
2022-10-12T16:30:14.085Z,57.29
2022-10-12T16:32:40.243Z,57.84
2022-10-12T16:35:06.341Z,57.94
2022-10-12T16:37:32.457Z,58.08
2022-10-12T16:39:58.568Z,58.62
2022-10-12T16:42:24.663Z,58.53
2022-10-12T16:44:50.799Z,58.80
2022-10-12T16:47:16.904Z,59.14
2022-10-12T16:49:42.991Z,59.23
2022-10-12T16:52:09.098Z,59.68
2022-10-12T16:54:35.194Z,59.63
2022-10-12T16:57:01.294Z,59.90
2022-10-12T16:59:27.410Z,60.18
2022-10-12T17:01:53.501Z,60.07
2022-10-12T17:04:19.584Z,60.12
2022-10-12T17:06:45.697Z,60.56
2022-10-12T17:09:11.794Z,60.66
2022-10-12T17:11:37.870Z,60.92
2022-10-12T17:14:03.984Z,61.00
2022-10-12T17:16:30.089Z,61.42
2022-10-12T17:18:59.416Z,61.38
2022-10-12T17:21:26.335Z,61.83
2022-10-12T17:23:52.434Z,61.89
2022-10-12T17:26:18.714Z,62.02
2022-10-12T17:28:44.889Z,62.28
2022-10-12T17:31:11.927Z,62.60
2022-10-12T17:33:38.152Z,62.79
2022-10-12T17:36:04.318Z,62.92
2022-10-12T17:38:30.423Z,63.38
2022-10-12T17:40:56.526Z,63.44
2022-10-12T17:43:22.699Z,63.27
2022-10-12T17:45:48.827Z,63.48
2022-10-12T17:48:14.931Z,64.04
2022-10-12T17:50:41.032Z,64.30
2022-10-12T17:53:07.133Z,64.19
2022-10-12T17:55:48.274Z,64.72
2022-10-12T17:58:15.101Z,64.64
2022-10-12T18:00:41.253Z,64.93
2022-10-12T18:03:07.412Z,64.97
2022-10-12T18:05:33.521Z,65.08
2022-10-12T18:07:59.654Z,65.19
2022-10-12T18:10:27.787Z,65.02
2022-10-12T18:12:54.956Z,65.34
2022-10-12T18:15:21.041Z,65.37
2022-10-12T18:17:47.132Z,65.37
2022-10-12T18:20:13.276Z,65.59
2022-10-12T18:22:39.369Z,65.60
2022-10-12T18:25:05.486Z,65.86
2022-10-12T18:27:31.597Z,65.95
2022-10-12T18:29:57.686Z,66.12
2022-10-12T18:32:23.770Z,65.87
2022-10-12T18:34:49.871Z,66.16
2022-10-12T18:37:15.952Z,66.27
2022-10-12T18:39:42.071Z,66.59
2022-10-12T18:42:08.192Z,66.77
2022-10-12T18:44:34.295Z,66.72
2022-10-12T18:47:00.455Z,67.08
2022-10-12T18:49:26.555Z,66.98
2022-10-12T18:51:52.658Z,66.99
2022-10-12T18:54:18.815Z,67.19
2022-10-12T18:56:44.933Z,67.37
2022-10-12T18:59:11.024Z,67.54
2022-10-12T19:01:37.153Z,67.65
2022-10-12T19:04:03.278Z,68.01
2022-10-12T19:06:29.391Z,68.23
2022-10-12T19:08:55.535Z,68.38
2022-10-12T19:11:21.671Z,68.67
2022-10-12T19:13:47.766Z,68.99
2022-10-12T19:16:13.876Z,68.83
2022-10-12T19:18:39.996Z,69.12
2022-10-12T19:21:06.089Z,69.21
2022-10-12T19:23:32.186Z,69.31
2022-10-12T19:25:58.735Z,69.48
2022-10-12T19:28:24.853Z,69.61
2022-10-12T19:30:50.975Z,69.67
2022-10-12T19:33:17.199Z,69.64
2022-10-12T19:35:43.302Z,69.90
2022-10-12T19:38:09.398Z,70.06
2022-10-12T19:40:36.141Z,70.12
2022-10-12T19:43:02.237Z,70.14
2022-10-12T19:45:28.398Z,70.00
2022-10-12T19:47:54.519Z,70.51
2022-10-12T19:50:20.636Z,70.66
2022-10-12T19:52:46.738Z,70.90
2022-10-12T19:55:12.847Z,71.16
2022-10-12T19:57:39.067Z,71.25
2022-10-12T20:00:05.173Z,71.34
2022-10-12T20:02:31.304Z,71.51
2022-10-12T20:04:57.393Z,71.81
2022-10-12T20:07:23.489Z,71.96
2022-10-12T20:09:49.622Z,72.00
2022-10-12T20:12:16.000Z,72.23
2022-10-12T20:14:42.360Z,72.32
2022-10-12T20:17:08.491Z,72.64
2022-10-12T20:19:34.585Z,72.73
2022-10-12T20:22:00.676Z,72.96
2022-10-12T20:24:26.799Z,73.03
2022-10-12T20:26:52.881Z,73.16
2022-10-12T20:29:18.978Z,73.22
2022-10-12T20:31:45.078Z,73.45
2022-10-12T20:34:11.180Z,73.55
2022-10-12T20:36:37.264Z,73.64
2022-10-12T20:39:03.366Z,73.81
2022-10-12T20:41:29.497Z,73.70
2022-10-12T20:43:55.594Z,73.89
2022-10-12T20:46:21.994Z,73.86
2022-10-12T20:48:48.094Z,74.02
2022-10-12T20:51:14.169Z,74.02
2022-10-12T20:53:40.311Z,74.49
2022-10-12T20:56:06.417Z,74.43
2022-10-12T20:58:32.518Z,74.42
2022-10-12T21:00:58.653Z,74.59
2022-10-12T21:03:24.789Z,74.61
2022-10-12T21:05:50.966Z,74.57
2022-10-12T21:08:17.091Z,74.86
2022-10-12T21:10:43.202Z,74.90
2022-10-12T21:13:09.289Z,75.00
2022-10-12T21:15:35.395Z,75.05
2022-10-12T21:18:01.494Z,74.79
2022-10-12T21:20:27.590Z,75.02
2022-10-12T21:22:53.700Z,75.01
2022-10-12T21:25:19.814Z,74.96
2022-10-12T21:27:45.931Z,74.99
2022-10-12T21:30:12.376Z,75.06
2022-10-12T21:32:38.451Z,74.96
2022-10-12T21:35:04.546Z,75.00
2022-10-12T21:37:30.689Z,74.99
2022-10-12T21:39:56.784Z,75.21
2022-10-12T21:42:22.885Z,75.34
2022-10-12T21:44:48.984Z,75.38
2022-10-12T21:47:18.239Z,75.58
2022-10-12T21:49:44.621Z,75.72
2022-10-12T21:52:10.770Z,75.56
2022-10-12T21:54:36.841Z,75.76
2022-10-12T21:57:02.935Z,75.90
2022-10-12T21:59:29.039Z,76.15
2022-10-12T22:01:55.150Z,76.16
2022-10-12T22:04:21.233Z,76.27
2022-10-12T22:06:47.345Z,76.24
2022-10-12T22:09:13.442Z,76.11
2022-10-12T22:11:39.540Z,76.42
2022-10-12T22:14:05.647Z,76.46
2022-10-12T22:16:31.750Z,76.48
2022-10-12T22:18:57.841Z,76.33
2022-10-12T22:21:23.953Z,76.43
2022-10-12T22:23:50.071Z,76.40
2022-10-12T22:26:16.174Z,76.35
2022-10-12T22:28:42.335Z,76.50
2022-10-12T22:31:08.481Z,76.46
2022-10-12T22:33:34.575Z,76.43
2022-10-12T22:36:01.493Z,76.65
2022-10-12T22:38:27.574Z,76.55
2022-10-12T22:40:53.659Z,76.74
2022-10-12T22:43:19.761Z,76.49
2022-10-12T22:45:45.850Z,76.51
2022-10-12T22:48:11.946Z,76.57
2022-10-12T22:50:38.317Z,76.91
2022-10-12T22:53:04.405Z,76.77
2022-10-12T22:55:30.520Z,76.77
2022-10-12T22:57:56.656Z,77.14
2022-10-12T23:00:22.792Z,77.17
2022-10-12T23:02:48.955Z,77.10
2022-10-12T23:05:15.105Z,77.19
2022-10-12T23:07:41.234Z,77.17
2022-10-12T23:10:07.320Z,77.07
2022-10-12T23:12:33.429Z,77.27
2022-10-12T23:14:59.537Z,77.13
2022-10-12T23:17:25.625Z,77.38
2022-10-12T23:19:51.757Z,77.25
2022-10-12T23:22:18.008Z,77.53
2022-10-12T23:24:44.280Z,77.39
2022-10-12T23:27:10.381Z,77.69
2022-10-12T23:29:36.468Z,77.90
2022-10-12T23:32:02.550Z,77.60
2022-10-12T23:34:28.670Z,77.60
2022-10-12T23:36:54.762Z,77.85
2022-10-12T23:39:20.848Z,77.72
2022-10-12T23:41:46.972Z,77.86
2022-10-12T23:44:13.058Z,77.76
2022-10-12T23:46:39.159Z,77.78
2022-10-12T23:49:05.264Z,77.62
2022-10-12T23:51:31.369Z,77.69
2022-10-12T23:53:57.461Z,77.90
2022-10-12T23:56:23.685Z,77.89
2022-10-12T23:58:49.773Z,77.83
